Time;durP1;ratioP1;P1;durP2;ratioP2;P2;SDS_P1;SDS_P2;PMS_P1;PMS_P2;Temp;Humidity;BMP_temperature;BMP_pressure;BME280_temperature;BME280_humidity;BME280_pressure;Samples;Min_cycle;Max_cycle;Signal;HPM_P1;HPM_P2
2023/01/31 00:01:43;;;;;;;;;;;9.50;60.70;;;;;;4952907;28;20278;-93
2023/01/31 00:04:10;;;;;;;;;;;9.50;60.30;;;;;;4952883;28;20001;-91
2023/01/31 00:06:37;;;;;;;;;;;9.40;60.20;;;;;;4952688;29;19930;-91
2023/01/31 00:09:04;;;;;;;;;;;9.40;60.30;;;;;;4952801;28;19915;-93
2023/01/31 00:11:30;;;;;;;;;;;9.40;60.70;;;;;;4954266;28;19925;-92
2023/01/31 00:13:57;;;;;;;;;;;9.50;61.10;;;;;;4954707;29;20265;-92
2023/01/31 00:16:34;;;;;;;;;;;9.50;61.50;;;;;;4952942;29;20262;-89
2023/01/31 00:19:03;;;;;;;;;;;9.70;61.70;;;;;;4953882;28;19925;-92
2023/01/31 00:21:29;;;;;;;;;;;9.70;61.80;;;;;;4952790;29;19922;-90
2023/01/31 00:23:59;;;;;;;;;;;9.80;62.00;;;;;;4954410;28;19941;-90
2023/01/31 00:26:29;;;;;;;;;;;9.80;62.20;;;;;;4953440;28;19918;-91
2023/01/31 00:28:55;;;;;;;;;;;10.00;62.30;;;;;;4951839;28;19919;-91
2023/01/31 00:31:21;;;;;;;;;;;10.10;62.30;;;;;;4952804;29;19926;-94
2023/01/31 00:33:48;;;;;;;;;;;10.20;62.10;;;;;;4952159;28;19929;-90
2023/01/31 00:36:15;;;;;;;;;;;10.20;62.20;;;;;;4951867;28;20013;-90
2023/01/31 00:38:49;;;;;;;;;;;10.30;62.20;;;;;;4953420;28;19926;-93
2023/01/31 00:41:15;;;;;;;;;;;10.40;62.10;;;;;;4954220;28;19941;-93
2023/01/31 00:43:43;;;;;;;;;;;10.40;61.90;;;;;;4953613;28;19923;-90
2023/01/31 00:46:14;;;;;;;;;;;10.50;61.90;;;;;;4953426;28;19922;-90
2023/01/31 00:48:44;;;;;;;;;;;10.50;61.60;;;;;;4952118;28;19975;-91
2023/01/31 00:51:11;;;;;;;;;;;10.40;61.60;;;;;;4951914;28;19914;-94
2023/01/31 00:53:40;;;;;;;;;;;10.40;61.50;;;;;;4952334;28;20389;-93
2023/01/31 00:56:07;;;;;;;;;;;10.50;61.50;;;;;;4951462;28;20641;-91
2023/01/31 00:58:38;;;;;;;;;;;10.50;61.40;;;;;;4951850;28;19918;-91
2023/01/31 01:01:07;;;;;;;;;;;10.50;61.30;;;;;;4963091;28;20011;-94
2023/01/31 01:03:36;;;;;;;;;;;10.50;61.20;;;;;;4951465;28;20305;-92
2023/01/31 01:06:01;;;;;;;;;;;10.50;61.00;;;;;;4953316;28;19925;-90
2023/01/31 01:08:29;;;;;;;;;;;10.50;61.10;;;;;;4952897;28;19919;-92
2023/01/31 01:10:55;;;;;;;;;;;10.50;61.10;;;;;;4952499;28;19921;-91
2023/01/31 01:13:23;;;;;;;;;;;10.50;60.90;;;;;;4951504;28;19934;-91
2023/01/31 01:15:49;;;;;;;;;;;10.50;60.90;;;;;;4947498;29;19914;-90
2023/01/31 01:18:15;;;;;;;;;;;10.40;60.80;;;;;;4950295;28;19926;-90
2023/01/31 01:20:41;;;;;;;;;;;10.40;60.80;;;;;;4951552;28;19910;-91
2023/01/31 01:23:12;;;;;;;;;;;10.40;60.80;;;;;;4951728;28;20009;-90
2023/01/31 01:25:50;;;;;;;;;;;10.40;60.90;;;;;;4951529;28;19919;-93
2023/01/31 01:28:17;;;;;;;;;;;10.40;60.90;;;;;;4951444;28;20365;-91
2023/01/31 01:30:45;;;;;;;;;;;10.40;60.90;;;;;;4951668;28;20061;-90
2023/01/31 01:33:21;;;;;;;;;;;10.50;60.90;;;;;;4952262;28;20346;-93
2023/01/31 01:35:50;;;;;;;;;;;10.50;61.00;;;;;;4952555;29;19933;-93
2023/01/31 01:38:20;;;;;;;;;;;10.50;60.90;;;;;;4952829;28;19919;-90
2023/01/31 01:40:48;;;;;;;;;;;10.50;60.80;;;;;;4951110;29;19917;-93
2023/01/31 01:43:33;;;;;;;;;;;10.50;60.70;;;;;;4951144;28;19922;-90
2023/01/31 01:45:59;;;;;;;;;;;10.50;60.80;;;;;;4950642;29;19921;-91
2023/01/31 01:48:35;;;;;;;;;;;10.50;60.70;;;;;;4950460;28;19911;-91
2023/01/31 01:51:04;;;;;;;;;;;10.50;60.40;;;;;;4950995;29;20092;-90
2023/01/31 01:53:30;;;;;;;;;;;10.40;60.50;;;;;;4951273;29;19963;-90
2023/01/31 01:56:07;;;;;;;;;;;10.50;60.50;;;;;;4950897;29;19957;-89
2023/01/31 01:58:41;;;;;;;;;;;10.50;60.60;;;;;;4950765;29;19924;-93
2023/01/31 02:01:12;;;;;;;;;;;10.50;60.60;;;;;;4950644;28;19918;-90
2023/01/31 02:03:41;;;;;;;;;;;10.50;60.60;;;;;;4950753;28;19921;-91
2023/01/31 02:06:14;;;;;;;;;;;10.50;60.60;;;;;;4950611;28;20008;-90
2023/01/31 02:08:41;;;;;;;;;;;10.60;60.60;;;;;;4950692;28;19946;-93
2023/01/31 02:11:12;;;;;;;;;;;10.60;60.60;;;;;;4951553;28;19915;-91
2023/01/31 02:13:39;;;;;;;;;;;10.60;60.60;;;;;;4950660;29;19922;-90
2023/01/31 02:16:07;;;;;;;;;;;10.60;60.60;;;;;;4950792;28;20347;-94
2023/01/31 02:18:35;;;;;;;;;;;10.60;60.60;;;;;;4943061;29;19926;-91
2023/01/31 02:21:26;;;;;;;;;;;10.60;60.50;;;;;;4951225;28;20002;-92
2023/01/31 02:24:11;;;;;;;;;;;10.60;60.50;;;;;;4944396;29;19915;-93
2023/01/31 02:27:11;;;;;;;;;;;;;;;;;;;;;
2023/01/31 02:29:43;;;;;;;;;;;10.60;60.50;;;;;;4936126;29;20412;-93
2023/01/31 02:32:27;;;;;;;;;;;10.50;60.20;;;;;;4949745;29;19919;-90
2023/01/31 02:35:11;;;;;;;;;;;10.40;59.70;;;;;;4950277;29;19922;-92
2023/01/31 02:37:40;;;;;;;;;;;10.20;59.40;;;;;;4949462;28;19926;-92
2023/01/31 02:40:10;;;;;;;;;;;10.00;58.90;;;;;;4949591;28;19929;-91
2023/01/31 02:42:41;;;;;;;;;;;10.00;58.90;;;;;;4950489;28;19933;-91
2023/01/31 02:45:18;;;;;;;;;;;9.80;58.50;;;;;;4950654;28;20005;-90
2023/01/31 02:47:52;;;;;;;;;;;9.70;58.50;;;;;;4950066;28;19954;-92
2023/01/31 02:50:29;;;;;;;;;;;9.60;58.40;;;;;;4949239;28;19969;-90
2023/01/31 02:52:55;;;;;;;;;;;9.50;58.20;;;;;;4949457;29;19918;-91
2023/01/31 02:58:18;;;;;;;;;;;9.30;58.60;;;;;;4952161;28;19930;-90
2023/01/31 03:00:48;;;;;;;;;;;9.20;58.60;;;;;;4951734;28;19911;-91
2023/01/31 03:03:18;;;;;;;;;;;9.10;58.70;;;;;;4954533;28;20613;-91
2023/01/31 03:05:44;;;;;;;;;;;9.00;58.60;;;;;;4955464;28;19910;-91
2023/01/31 03:08:15;;;;;;;;;;;8.90;58.50;;;;;;4953955;28;20339;-91
2023/01/31 03:10:40;;;;;;;;;;;8.80;58.60;;;;;;4955188;28;19949;-90
2023/01/31 03:13:27;;;;;;;;;;;8.80;58.80;;;;;;4953977;28;19969;-91
2023/01/31 03:19:12;;;;;;;;;;;8.70;59.10;;;;;;4955174;28;19981;-93
2023/01/31 03:21:49;;;;;;;;;;;8.60;59.30;;;;;;4954014;28;19930;-93
2023/01/31 03:24:20;;;;;;;;;;;8.60;59.70;;;;;;4953483;28;19911;-90
2023/01/31 03:26:46;;;;;;;;;;;8.60;59.80;;;;;;4953726;28;19926;-92
2023/01/31 03:29:13;;;;;;;;;;;8.60;59.80;;;;;;4953900;28;20109;-91
2023/01/31 03:31:49;;;;;;;;;;;8.70;59.80;;;;;;4955080;28;20020;-91
2023/01/31 03:34:18;;;;;;;;;;;8.60;59.60;;;;;;4953944;28;19914;-92
2023/01/31 03:36:55;;;;;;;;;;;8.60;59.60;;;;;;4955051;28;20417;-91
2023/01/31 03:39:30;;;;;;;;;;;8.60;59.90;;;;;;4954456;28;19919;-94
2023/01/31 03:41:55;;;;;;;;;;;8.60;60.10;;;;;;4955750;28;19926;-93
2023/01/31 03:44:35;;;;;;;;;;;8.60;60.10;;;;;;4953181;28;19918;-90
2023/01/31 03:47:08;;;;;;;;;;;8.60;60.10;;;;;;4953186;28;19985;-94
2023/01/31 03:49:34;;;;;;;;;;;8.60;59.70;;;;;;4953077;28;19929;-90
2023/01/31 03:52:03;;;;;;;;;;;8.50;59.30;;;;;;4954862;28;19910;-91
2023/01/31 03:54:31;;;;;;;;;;;8.50;59.30;;;;;;4952087;28;19919;-90
2023/01/31 03:57:03;;;;;;;;;;;8.40;59.20;;;;;;4953022;29;19938;-90
2023/01/31 03:59:33;;;;;;;;;;;8.30;59.20;;;;;;4951561;28;19926;-91
2023/01/31 04:02:00;;;;;;;;;;;8.30;59.30;;;;;;4952949;28;19911;-91
2023/01/31 04:04:29;;;;;;;;;;;8.30;59.40;;;;;;4952844;28;19923;-89
2023/01/31 04:06:57;;;;;;;;;;;8.30;59.60;;;;;;4954003;28;19944;-90
2023/01/31 04:09:26;;;;;;;;;;;8.30;59.60;;;;;;4952323;28;20362;-90
2023/01/31 04:11:52;;;;;;;;;;;8.30;59.80;;;;;;4953944;28;19922;-92
2023/01/31 04:14:20;;;;;;;;;;;8.30;60.00;;;;;;4952750;28;19914;-93
2023/01/31 04:16:47;;;;;;;;;;;8.40;60.40;;;;;;4952314;28;19914;-90
2023/01/31 04:19:15;;;;;;;;;;;8.50;60.60;;;;;;4952285;29;19922;-92
2023/01/31 04:21:41;;;;;;;;;;;8.60;60.80;;;;;;4953959;29;19915;-90
2023/01/31 04:24:08;;;;;;;;;;;8.70;61.00;;;;;;4952428;29;19922;-90
2023/01/31 04:26:34;;;;;;;;;;;8.80;61.10;;;;;;4952429;29;19915;-90
2023/01/31 04:29:00;;;;;;;;;;;8.90;61.00;;;;;;4952413;29;20021;-91
2023/01/31 04:31:34;;;;;;;;;;;9.00;61.10;;;;;;4951935;29;19954;-90
2023/01/31 04:33:59;;;;;;;;;;;9.10;61.00;;;;;;4952150;29;20389;-90
2023/01/31 04:36:26;;;;;;;;;;;9.20;61.00;;;;;;4951862;29;19919;-89
2023/01/31 04:38:54;;;;;;;;;;;9.20;61.00;;;;;;4951465;29;19927;-90
2023/01/31 04:41:25;;;;;;;;;;;9.30;60.80;;;;;;4951854;29;19918;-91
2023/01/31 04:43:51;;;;;;;;;;;9.30;60.70;;;;;;4951287;28;19965;-91
2023/01/31 04:46:19;;;;;;;;;;;9.30;60.70;;;;;;4953882;29;20401;-93
2023/01/31 04:48:47;;;;;;;;;;;9.30;60.60;;;;;;4951832;29;20023;-94
2023/01/31 04:51:13;;;;;;;;;;;9.30;60.70;;;;;;4951766;29;19950;-93
2023/01/31 04:53:39;;;;;;;;;;;9.30;60.60;;;;;;4953484;29;19950;-93
2023/01/31 04:56:09;;;;;;;;;;;9.40;60.60;;;;;;4952217;28;19910;-93
2023/01/31 04:58:40;;;;;;;;;;;9.40;60.70;;;;;;4952835;28;19927;-92
2023/01/31 05:01:09;;;;;;;;;;;9.50;60.50;;;;;;4949761;28;20005;-90
2023/01/31 05:03:37;;;;;;;;;;;9.50;60.40;;;;;;4949626;28;19969;-89
2023/01/31 05:06:03;;;;;;;;;;;9.60;60.50;;;;;;4947335;29;19915;-90
2023/01/31 05:08:30;;;;;;;;;;;9.60;60.40;;;;;;4949881;29;19949;-90
2023/01/31 05:10:56;;;;;;;;;;;9.60;60.30;;;;;;4947997;28;19921;-91
2023/01/31 05:13:28;;;;;;;;;;;9.60;60.10;;;;;;4949771;28;19925;-90
2023/01/31 05:15:56;;;;;;;;;;;9.60;60.30;;;;;;4949828;28;20417;-89
2023/01/31 05:18:23;;;;;;;;;;;9.60;60.30;;;;;;4949738;28;19918;-90
2023/01/31 05:20:49;;;;;;;;;;;9.70;60.40;;;;;;4950885;28;19914;-90
2023/01/31 05:23:15;;;;;;;;;;;9.70;60.40;;;;;;4972875;28;19919;-90
2023/01/31 05:25:44;;;;;;;;;;;9.70;60.40;;;;;;4949770;28;19911;-91
2023/01/31 05:28:38;;;;;;;;;;;9.80;60.40;;;;;;4949755;28;19934;-91
2023/01/31 05:31:05;;;;;;;;;;;9.80;60.50;;;;;;4951565;28;19915;-93
2023/01/31 05:33:30;;;;;;;;;;;9.90;60.70;;;;;;4952081;28;19955;-93
2023/01/31 05:35:56;;;;;;;;;;;10.00;60.50;;;;;;4951509;28;19958;-94
2023/01/31 05:38:25;;;;;;;;;;;10.00;60.60;;;;;;4951209;28;19910;-89
2023/01/31 05:40:53;;;;;;;;;;;10.10;60.50;;;;;;4951893;28;19922;-91
2023/01/31 05:43:19;;;;;;;;;;;10.10;60.50;;;;;;4947416;28;19919;-90
2023/01/31 05:45:46;;;;;;;;;;;10.20;60.40;;;;;;4941461;29;19926;-90
2023/01/31 05:48:12;;;;;;;;;;;10.20;60.40;;;;;;4952051;28;19926;-89
2023/01/31 05:50:38;;;;;;;;;;;10.20;60.50;;;;;;4950732;28;19923;-90
2023/01/31 05:53:08;;;;;;;;;;;10.30;60.30;;;;;;4951092;28;19914;-91
2023/01/31 05:55:33;;;;;;;;;;;10.30;60.50;;;;;;4951931;28;19919;-91
2023/01/31 05:58:04;;;;;;;;;;;10.40;60.50;;;;;;4949728;28;20325;-91
2023/01/31 06:00:55;;;;;;;;;;;10.40;60.30;;;;;;4951023;28;19926;-91
2023/01/31 06:06:35;;;;;;;;;;;10.50;60.40;;;;;;4938823;28;19918;-92
2023/01/31 06:09:28;;;;;;;;;;;10.60;60.40;;;;;;4951650;28;19910;-93
2023/01/31 06:15:16;;;;;;;;;;;;;;;;;;;;;
2023/01/31 06:35:51;;;;;;;;;;;10.90;60.50;;;;;;4889657;29;19923;-93
2023/01/31 06:43:23;;;;;;;;;;;;;;;;;;;;;
2023/01/31 06:52:14;;;;;;;;;;;;;;;;;;;;;
2023/01/31 06:55:12;;;;;;;;;;;11.00;60.20;;;;;;4930046;28;19934;-90
2023/01/31 07:00:59;;;;;;;;;;;11.00;60.30;;;;;;4895274;29;19926;-95
2023/01/31 07:07:06;;;;;;;;;;;11.10;60.10;;;;;;4927317;29;19961;-89
2023/01/31 07:10:12;;;;;;;;;;;;;;;;;;;;;
2023/01/31 07:32:29;;;;;;;;;;;;;;;;;;;;;
2023/01/31 08:25:36;;;;;;;;;;;11.90;58.60;;;;;;3553660;23;19938;-91
2023/01/31 08:41:27;;;;;;;;;;;;;;;;;;;;;
2023/01/31 09:41:35;;;;;;;;;;;11.30;60.40;;;;;;1327055;26;19930;-93
2023/01/31 11:40:01;;;;;;;;;;;11.70;62.40;;;;;;4854294;23;19945;-94
2023/01/31 13:22:27;;;;;;;;;;;;;;;;;;;;;
2023/01/31 13:31:07;;;;;;;;;;;;;;;;;;;;;
2023/01/31 13:34:04;;;;;;;;;;;11.80;63.90;;;;;;4931548;29;19918;-92
2023/01/31 13:39:58;;;;;;;;;;;11.80;64.00;;;;;;4919473;29;19934;-92
2023/01/31 13:47:49;;;;;;;;;;;11.90;63.90;;;;;;4935772;29;19930;-94
2023/01/31 13:50:29;;;;;;;;;;;11.90;64.10;;;;;;4943843;29;20266;-92
2023/01/31 13:53:18;;;;;;;;;;;11.90;64.20;;;;;;4932473;29;20301;-92
2023/01/31 13:56:05;;;;;;;;;;;12.00;64.30;;;;;;4929981;29;19929;-93
2023/01/31 16:16:09;;;;;;;;;;;12.60;64.50;;;;;;4196477;23;20717;-92
2023/01/31 16:18:45;;;;;;;;;;;;;;;;;;;;;
2023/01/31 16:21:31;;;;;;;;;;;12.70;64.50;;;;;;4958912;28;19936;-92
2023/01/31 16:23:58;;;;;;;;;;;12.70;64.40;;;;;;4950991;28;19923;-92
2023/01/31 16:32:42;;;;;;;;;;;12.70;64.30;;;;;;4471258;26;19935;-95
2023/01/31 16:58:55;;;;;;;;;;;12.70;64.80;;;;;;5387174;23;19945;-94
2023/01/31 17:50:24;;;;;;;;;;;;;;;;;;;;;
2023/01/31 18:52:33;;;;;;;;;;;;;;;;;;;;;
2023/01/31 20:17:58;;;;;;;;;;;10.30;61.60;;;;;;3801367;23;19930;-92
2023/01/31 21:02:22;;;;;;;;;;;;;;;;;;;;;
2023/01/31 21:08:08;;;;;;;;;;;9.90;61.70;;;;;;4915873;28;19926;-91
2023/01/31 21:11:18;;;;;;;;;;;9.90;61.80;;;;;;4902831;29;19962;-91
2023/01/31 21:17:41;;;;;;;;;;;;;;;;;;;;;
2023/01/31 21:32:39;;;;;;;;;;;9.70;61.40;;;;;;4934995;28;19961;-91
2023/01/31 21:35:21;;;;;;;;;;;9.70;61.50;;;;;;4914901;29;19915;-93
2023/01/31 21:38:38;;;;;;;;;;;;;;;;;;;;;
2023/01/31 21:47:31;;;;;;;;;;;;;;;;;;;;;
2023/01/31 21:58:43;;;;;;;;;;;9.40;61.70;;;;;;4958651;28;19928;-90
2023/01/31 22:01:48;;;;;;;;;;;;;;;;;;;;;
2023/01/31 22:07:48;;;;;;;;;;;9.40;61.60;;;;;;4957631;28;19922;-92
2023/01/31 22:10:47;;;;;;;;;;;;;;;;;;;;;
2023/01/31 22:13:15;;;;;;;;;;;9.40;61.80;;;;;;4933340;28;20502;-92
2023/01/31 22:15:43;;;;;;;;;;;9.40;61.70;;;;;;4933875;29;19997;-92
2023/01/31 22:18:12;;;;;;;;;;;9.40;61.90;;;;;;4925797;29;20899;-92
2023/01/31 22:20:38;;;;;;;;;;;9.40;61.60;;;;;;4921102;29;19954;-91
2023/01/31 22:23:05;;;;;;;;;;;9.50;61.70;;;;;;4928426;29;19916;-93
2023/01/31 22:25:41;;;;;;;;;;;9.40;61.80;;;;;;4932505;29;19926;-92
2023/01/31 22:28:10;;;;;;;;;;;9.40;61.60;;;;;;4926431;29;20325;-93
2023/01/31 22:30:38;;;;;;;;;;;9.40;61.50;;;;;;4915179;29;19966;-96
2023/01/31 22:33:06;;;;;;;;;;;9.40;61.40;;;;;;4923026;29;20014;-92
2023/01/31 22:35:32;;;;;;;;;;;9.40;61.30;;;;;;4931048;29;20290;-91
2023/01/31 22:38:11;;;;;;;;;;;;;;;;;;;;;
2023/01/31 22:40:43;;;;;;;;;;;9.30;61.20;;;;;;4926334;29;20371;-92
2023/01/31 22:43:12;;;;;;;;;;;9.30;61.40;;;;;;4914068;29;19914;-90
2023/01/31 22:45:44;;;;;;;;;;;9.30;61.20;;;;;;4914770;29;19922;-92
2023/01/31 22:48:13;;;;;;;;;;;9.30;61.30;;;;;;4911296;29;20327;-91
2023/01/31 22:50:42;;;;;;;;;;;9.20;61.10;;;;;;4933338;29;19918;-93
2023/01/31 22:53:15;;;;;;;;;;;9.20;61.40;;;;;;4912464;29;19914;-92
2023/01/31 22:55:43;;;;;;;;;;;9.30;61.40;;;;;;4926410;29;19919;-96
2023/01/31 22:58:14;;;;;;;;;;;9.20;61.50;;;;;;4902939;29;20010;-93
2023/01/31 23:00:49;;;;;;;;;;;9.20;61.50;;;;;;4916327;29;19927;-93
2023/01/31 23:03:15;;;;;;;;;;;9.20;61.50;;;;;;4898335;29;20023;-93
2023/01/31 23:05:42;;;;;;;;;;;9.20;61.30;;;;;;4930157;29;19981;-93
2023/01/31 23:08:09;;;;;;;;;;;9.20;61.40;;;;;;4913704;29;19915;-93
2023/01/31 23:10:34;;;;;;;;;;;9.20;61.40;;;;;;4931464;29;19921;-93
2023/01/31 23:13:00;;;;;;;;;;;9.20;61.60;;;;;;4929784;29;19922;-91
2023/01/31 23:15:29;;;;;;;;;;;9.20;61.50;;;;;;4916444;29;20326;-93
2023/01/31 23:18:08;;;;;;;;;;;9.20;61.40;;;;;;4933046;29;19926;-95
2023/01/31 23:20:34;;;;;;;;;;;9.20;61.50;;;;;;4935574;29;20406;-90
2023/01/31 23:23:06;;;;;;;;;;;9.20;61.70;;;;;;4936461;29;20482;-92
2023/01/31 23:25:34;;;;;;;;;;;9.20;61.80;;;;;;4918536;29;19926;-92
2023/01/31 23:28:02;;;;;;;;;;;9.20;62.00;;;;;;4936111;29;19942;-96
2023/01/31 23:30:37;;;;;;;;;;;9.20;61.70;;;;;;4935301;29;20325;-95
2023/01/31 23:33:05;;;;;;;;;;;9.20;61.70;;;;;;4917793;29;19918;-91
2023/01/31 23:35:41;;;;;;;;;;;9.20;61.80;;;;;;4934465;29;20006;-95
2023/01/31 23:38:07;;;;;;;;;;;9.20;62.00;;;;;;4919686;29;20425;-91
2023/01/31 23:40:35;;;;;;;;;;;9.30;62.00;;;;;;4935834;29;20013;-95
2023/01/31 23:43:01;;;;;;;;;;;9.30;61.80;;;;;;4934611;29;19911;-95
2023/01/31 23:45:29;;;;;;;;;;;9.30;61.80;;;;;;4936071;29;19922;-95
2023/01/31 23:47:55;;;;;;;;;;;9.30;61.60;;;;;;4935342;29;19915;-90
2023/01/31 23:50:30;;;;;;;;;;;9.30;61.10;;;;;;4918169;29;20002;-93
2023/01/31 23:52:59;;;;;;;;;;;9.20;61.20;;;;;;4934795;29;20266;-92
2023/01/31 23:55:27;;;;;;;;;;;9.20;61.30;;;;;;4934323;29;20001;-91
2023/01/31 23:57:55;;;;;;;;;;;9.20;61.30;;;;;;4918315;29;19914;-96
